Airfield :
LOGIN :

Register | Disclaimer

   EN    FR    IT 

 










Legend :    VFR   Marginal VFR   IFR   Intensive IFR   Very Intensive IFR
Visi :
Ceiling :
>= 8 km
>= 3000ft
5 to 8 km
1000 to 3000 ft
1500m to 5 km
500 to 1000 ft
800 to 1500m
200 to 500 ft
< 800m
< 200 ft
Symbols :   Thunderstorms  Fog  Heavy snow  Heavy precipitations  Wind > 20 kt
SIGMETs :     Misc.  Thunderstorms  Icing  Turbulence  Mountain Waves  Volcanic Ashes






- Airport Elevation : 52 ft
- IATA code : RNN


EKRN - Bornholm Ronne

CURRENT METAR :
  • 162320Z AUTO 23019KT 9999 FEW042/// 08/05 Q1011

EXPIRED METARs :
  • 162250Z AUTO 22020KT 9999 BKN018/// BKN044/// 08/05 Q1011
  • 162220Z AUTO 23020G30KT 9999 BKN018/// BKN043/// 08/05 Q1011
  • 162150Z AUTO 22020G30KT 9999 OVC016/// 08/05 Q1010
  • 162120Z AUTO 22021KT 190V250 9999 OVC016/// 08/05 Q1010
  • 162050Z AUTO 23021KT 9999 OVC016/// 08/05 Q1009

Expired Forecast.



MET'MAP, your aeronautical weather chart ! - Copyright ORBIFLY December 2007 - Disclaimer

ORBIFLY MET'MAP TEAM :

Programming & Development : Alexandra Zaïnal
Concept & Development : Baudouin d'Aumeries
Co-Development & Prog : Marc-Olivier Méhu
Technical & hardware support : Manuel Goepfert

Contact : metmap@orbifly.com




SOURCES & CREDITS :

   NOAA